Time;durP1;ratioP1;P1;durP2;ratioP2;P2;SDS_P1;SDS_P2;PMS_P1;PMS_P2;Temp;Humidity;BMP_temperature;BMP_pressure;BME280_temperature;BME280_humidity;BME280_pressure;Samples;Min_cycle;Max_cycle;Signal;HPM_P1;HPM_P2
2021/05/13 00:00:10;;;;;;;4.30;1.15;;;21.50;77.30;;;;;;5071437;28;20067;-54
2021/05/13 00:02:38;;;;;;;4.30;2.08;;;21.60;77.50;;;;;;5071415;28;20024;-53
2021/05/13 00:05:06;;;;;;;2.50;1.67;;;21.60;77.40;;;;;;5071712;28;20032;-46
2021/05/13 00:07:33;;;;;;;4.03;1.38;;;21.70;76.80;;;;;;5071548;28;20044;-51
2021/05/13 00:10:01;;;;;;;3.80;1.85;;;21.80;78.10;;;;;;5071638;28;20495;-56
2021/05/13 00:15:21;;;;;;;6.13;1.80;;;21.90;75.20;;;;;;5071466;28;20409;-53
2021/05/13 00:17:50;;;;;;;2.35;1.42;;;22.00;77.30;;;;;;5071254;28;20123;-55
2021/05/13 00:20:23;;;;;;;5.05;1.95;;;22.00;78.40;;;;;;5070743;28;20033;-58
2021/05/13 00:22:51;;;;;;;1.98;1.30;;;22.10;76.10;;;;;;5071105;28;20020;-56
2021/05/13 00:25:19;;;;;;;3.70;1.50;;;22.10;78.30;;;;;;5071383;28;20024;-55
2021/05/13 00:27:47;;;;;;;6.68;1.65;;;22.20;76.10;;;;;;5071614;28;20353;-58
2021/05/13 00:30:16;;;;;;;4.82;1.88;;;22.30;75.80;;;;;;5071619;28;20062;-57
2021/05/13 00:32:43;;;;;;;6.57;1.80;;;22.40;74.50;;;;;;5071218;28;20024;-54
2021/05/13 00:35:16;;;;;;;8.20;1.48;;;22.50;74.40;;;;;;5071518;28;20039;-57
2021/05/13 00:37:44;;;;;;;4.35;1.55;;;22.50;75.30;;;;;;5071255;28;20383;-55
2021/05/13 00:40:14;;;;;;;2.60;0.90;;;22.50;74.90;;;;;;5071224;28;20093;-57
2021/05/13 00:42:42;;;;;;;8.45;1.63;;;22.60;75.20;;;;;;5071538;28;20025;-49
2021/05/13 00:45:12;;;;;;;4.50;1.52;;;22.60;73.10;;;;;;5074802;28;20035;-52
2021/05/13 00:48:32;;;;;;;4.82;1.23;;;22.70;72.50;;;;;;5075272;28;20029;-55
2021/05/13 00:50:27;;;;;;;3.38;1.45;;;22.80;74.80;;;;;;5063702;28;20070;-51
2021/05/13 00:52:55;;;;;;;2.45;1.30;;;22.80;72.30;;;;;;5074699;28;20115;-58
2021/05/13 00:55:23;;;;;;;4.63;1.08;;;22.90;74.60;;;;;;5074887;28;20034;-57
2021/05/13 00:57:53;;;;;;;3.95;1.50;;;22.90;72.60;;;;;;5074800;28;20017;-56
2021/05/13 01:02:59;;;;;;;4.47;1.50;;;23.00;73.20;;;;;;5074613;28;20501;-57
2021/05/13 01:05:28;;;;;;;5.53;1.60;;;23.10;72.90;;;;;;5074884;28;20085;-53
2021/05/13 01:07:58;;;;;;;2.60;1.10;;;23.20;71.70;;;;;;5073458;28;20348;-50
2021/05/13 01:10:26;;;;;;;3.70;1.40;;;23.30;71.60;;;;;;5074023;28;20087;-49
2021/05/13 01:12:56;;;;;;;2.83;1.30;;;23.30;73.10;;;;;;5074486;28;20029;-53
2021/05/13 01:15:32;;;;;;;3.70;1.42;;;23.30;74.60;;;;;;5073964;28;20510;-51
2021/05/13 01:18:05;;;;;;;3.47;2.13;;;23.40;74.20;;;;;;5074255;28;20462;-49
2021/05/13 01:20:33;;;;;;;4.80;1.42;;;23.40;73.60;;;;;;5074142;28;20082;-51
2021/05/13 01:23:01;;;;;;;6.20;1.27;;;23.50;73.30;;;;;;5074353;28;20031;-51
2021/05/13 01:25:29;;;;;;;3.80;1.40;;;23.60;71.30;;;;;;5074245;28;20055;-55
2021/05/13 01:28:01;;;;;;;4.97;1.33;;;23.70;69.10;;;;;;5074351;28;20479;-52
2021/05/13 01:30:29;;;;;;;2.90;1.17;;;23.90;69.00;;;;;;5073812;28;20021;-56
2021/05/13 01:33:00;;;;;;;3.17;1.20;;;23.90;68.10;;;;;;5074065;28;20383;-48
2021/05/13 01:35:28;;;;;;;6.13;1.00;;;23.90;70.10;;;;;;5074062;28;20032;-55
2021/05/13 01:38:05;;;;;;;3.25;1.15;;;24.00;71.80;;;;;;5074290;28;20024;-53
2021/05/13 01:40:33;;;;;;;6.78;1.52;;;23.90;67.80;;;;;;5073606;28;20127;-51
2021/05/13 01:43:02;;;;;;;4.90;1.48;;;23.90;69.00;;;;;;5074011;28;20107;-54
2021/05/13 01:45:29;;;;;;;5.00;1.00;;;24.10;67.50;;;;;;5073998;28;20025;-59
2021/05/13 01:48:02;;;;;;;4.65;1.98;;;24.10;67.70;;;;;;5074236;28;20035;-54
2021/05/13 01:50:35;;;;;;;2.75;0.80;;;24.20;68.90;;;;;;5072538;28;20021;-60
2021/05/13 01:53:10;;;;;;;4.82;1.48;;;24.20;71.90;;;;;;5075806;28;20103;-46
2021/05/13 01:55:37;;;;;;;4.80;1.23;;;24.20;67.90;;;;;;5071840;28;20028;-57
2021/05/13 01:58:05;;;;;;;2.33;1.33;;;24.30;71.30;;;;;;5072579;28;20055;-49
2021/05/13 02:00:37;;;;;;;1.98;0.77;;;24.30;68.60;;;;;;5072263;28;20035;-55
2021/05/13 02:03:04;;;;;;;;;;;24.30;69.30;;;;;;5071911;28;20064;-54
2021/05/13 02:05:32;;;;;;;3.63;1.20;;;24.50;69.00;;;;;;5071315;28;20370;-57
2021/05/13 02:08:00;;;;;;;3.33;0.88;;;24.50;67.70;;;;;;5071308;28;20452;-59
2021/05/13 02:10:27;;;;;;;3.38;1.30;;;24.40;69.00;;;;;;5070611;28;20067;-53
2021/05/13 02:12:56;;;;;;;4.78;0.93;;;24.50;65.40;;;;;;5071379;28;20039;-56
2021/05/13 02:15:24;;;;;;;2.20;0.90;;;24.70;66.00;;;;;;5069158;28;20066;-54
2021/05/13 02:17:52;;;;;;;6.70;1.55;;;24.70;67.30;;;;;;5073376;28;20100;-58
2021/05/13 02:20:22;;;;;;;2.67;0.80;;;24.80;68.70;;;;;;5072545;28;20037;-55
2021/05/13 02:22:50;;;;;;;2.42;0.95;;;24.70;67.10;;;;;;5072343;28;20475;-60
2021/05/13 02:25:18;;;;;;;3.90;0.93;;;24.80;66.70;;;;;;5072950;28;20036;-56
2021/05/13 02:27:45;;;;;;;1.45;0.90;;;24.80;66.30;;;;;;5073251;28;20050;-58
2021/05/13 02:30:14;;;;;;;1.65;0.85;;;24.70;65.80;;;;;;5073021;28;20024;-52
2021/05/13 02:32:41;;;;;;;1.52;0.90;;;24.80;67.00;;;;;;5072343;28;20133;-54
2021/05/13 02:35:11;;;;;;;4.70;1.55;;;24.70;69.20;;;;;;5072429;28;20057;-54
2021/05/13 02:37:43;;;;;;;3.17;1.15;;;24.80;65.00;;;;;;5072635;28;20012;-57
2021/05/13 02:40:12;;;;;;;3.25;0.85;;;24.80;66.80;;;;;;5072645;28;20028;-51
2021/05/13 02:42:40;;;;;;;5.22;1.08;;;24.80;65.10;;;;;;5072325;28;20143;-53
2021/05/13 02:45:09;;;;;;;3.28;1.40;;;24.80;67.90;;;;;;5072569;28;20048;-50
2021/05/13 02:47:37;;;;;;;2.97;1.48;;;24.90;69.30;;;;;;5072723;28;20025;-54
2021/05/13 02:50:08;;;;;;;4.40;0.93;;;24.80;66.30;;;;;;5072599;28;20063;-52
2021/05/13 02:52:35;;;;;;;1.70;0.70;;;24.90;69.20;;;;;;5072530;28;20035;-51
2021/05/13 02:55:03;;;;;;;3.55;1.40;;;25.00;69.30;;;;;;5072103;28;20162;-48
2021/05/13 02:57:31;;;;;;;2.20;1.13;;;25.00;64.00;;;;;;5072512;28;20017;-53
2021/05/13 03:00:15;;;;;;;2.42;0.80;;;25.10;65.80;;;;;;5072333;28;20024;-49
2021/05/13 03:02:43;;;;;;;1.38;0.80;;;25.10;69.30;;;;;;5072361;28;20051;-51
2021/05/13 03:05:11;;;;;;;2.00;1.05;;;25.20;67.20;;;;;;5072511;28;20016;-56
2021/05/13 03:07:44;;;;;;;2.22;1.00;;;25.30;64.00;;;;;;5071197;28;20037;-55
2021/05/13 03:10:42;;;;;;;2.38;1.10;;;25.30;65.70;;;;;;5071978;28;20059;-53
2021/05/13 03:13:00;;;;;;;2.47;1.00;;;25.30;66.90;;;;;;5071789;28;20545;-53
2021/05/13 03:15:29;;;;;;;3.35;1.13;;;25.30;66.60;;;;;;5072342;28;20514;-54
2021/05/13 03:17:56;;;;;;;3.65;0.85;;;25.30;66.90;;;;;;5072245;28;20020;-59
2021/05/13 03:20:31;;;;;;;2.35;0.98;;;25.30;65.00;;;;;;5071678;28;20054;-58
2021/05/13 03:22:59;;;;;;;1.92;0.93;;;25.40;65.40;;;;;;5071843;28;20085;-50
2021/05/13 03:25:30;;;;;;;2.17;0.90;;;25.40;68.40;;;;;;5072005;28;20031;-54
2021/05/13 03:28:08;;;;;;;2.80;1.30;;;25.60;64.90;;;;;;5071913;28;20094;-52
2021/05/13 03:30:46;;;;;;;7.63;1.00;;;25.60;61.90;;;;;;5071611;28;20028;-53
2021/05/13 03:33:14;;;;;;;2.67;0.82;;;25.70;64.00;;;;;;5072142;28;20146;-53
2021/05/13 03:35:45;;;;;;;1.67;0.55;;;25.70;65.40;;;;;;5071476;28;20028;-56
2021/05/13 03:38:12;;;;;;;3.17;0.95;;;25.70;65.20;;;;;;5071611;28;20020;-55
2021/05/13 03:40:40;;;;;;;1.48;0.73;;;25.70;63.80;;;;;;5071908;28;20039;-55
2021/05/13 03:43:08;;;;;;;1.40;0.60;;;25.70;63.50;;;;;;5072103;28;20024;-55
2021/05/13 03:45:36;;;;;;;5.50;1.00;;;25.70;65.50;;;;;;5071608;28;20028;-51
2021/05/13 03:48:04;;;;;;;2.38;0.82;;;25.70;65.00;;;;;;5071657;28;20028;-52
2021/05/13 03:50:34;;;;;;;5.53;1.27;;;25.70;63.40;;;;;;5071434;28;20548;-50
2021/05/13 03:53:03;;;;;;;1.73;0.70;;;25.80;65.90;;;;;;5071450;28;20036;-56
2021/05/13 03:55:30;;;;;;;1.75;1.00;;;25.80;66.30;;;;;;5070948;28;20572;-49
2021/05/13 03:57:59;;;;;;;1.38;0.70;;;25.70;61.60;;;;;;5070997;28;20029;-52
2021/05/13 04:00:32;;;;;;;0.80;0.70;;;25.80;64.10;;;;;;5070682;28;20041;-49
2021/05/13 04:02:59;;;;;;;1.35;0.80;;;25.90;67.00;;;;;;5071149;28;20025;-54
2021/05/13 04:05:26;;;;;;;1.95;0.80;;;25.80;66.70;;;;;;5071377;28;20082;-50
2021/05/13 04:07:54;;;;;;;2.22;0.88;;;25.90;61.10;;;;;;5071471;28;20028;-54
2021/05/13 04:10:21;;;;;;;2.28;0.98;;;26.10;61.30;;;;;;5071413;28;20475;-54
2021/05/13 04:12:55;;;;;;;2.72;1.00;;;26.10;59.90;;;;;;5070942;28;20025;-54
2021/05/13 04:15:23;;;;;;;3.22;0.60;;;26.20;63.30;;;;;;5071805;28;20088;-54
2021/05/13 04:17:50;;;;;;;1.23;0.85;;;26.20;60.60;;;;;;5072134;28;20132;-55
2021/05/13 04:20:17;;;;;;;2.25;0.47;;;26.20;66.20;;;;;;5074992;28;20039;-55
2021/05/13 04:22:45;;;;;;;1.92;0.90;;;26.20;63.30;;;;;;5074768;28;20028;-57
2021/05/13 04:25:12;;;;;;;2.85;0.80;;;26.30;65.30;;;;;;5074891;28;20074;-50
2021/05/13 04:27:40;;;;;;;2.13;0.60;;;26.20;61.00;;;;;;5074769;28;20020;-54
2021/05/13 04:30:08;;;;;;;4.53;0.80;;;26.10;66.70;;;;;;5065737;28;20029;-48
2021/05/13 04:32:38;;;;;;;2.33;1.02;;;26.00;64.50;;;;;;5071789;28;20111;-52
2021/05/13 04:35:06;;;;;;;3.50;1.30;;;26.20;64.80;;;;;;5070889;28;20069;-48
2021/05/13 04:37:33;;;;;;;0.90;0.65;;;26.20;60.60;;;;;;5070971;28;20040;-51
2021/05/13 04:40:01;;;;;;;0.70;0.50;;;26.30;65.10;;;;;;5070946;28;20100;-53
2021/05/13 04:42:28;;;;;;;1.98;0.75;;;26.30;65.90;;;;;;5068602;28;20033;-49
2021/05/13 04:44:57;;;;;;;1.15;0.68;;;26.30;65.10;;;;;;5068036;28;20029;-49
2021/05/13 04:49:54;;;;;;;3.78;0.70;;;26.30;65.10;;;;;;5070837;28;20139;-54
2021/05/13 04:52:24;;;;;;;1.75;0.90;;;26.20;64.90;;;;;;5070865;28;20036;-55
2021/05/13 04:54:53;;;;;;;5.07;1.05;;;26.30;61.40;;;;;;5066471;28;20032;-54
2021/05/13 04:57:21;;;;;;;1.60;0.68;;;26.30;64.00;;;;;;5071438;28;20025;-55
2021/05/13 04:59:48;;;;;;;5.07;1.10;;;26.00;65.90;;;;;;5070541;28;20029;-54
2021/05/13 05:02:16;;;;;;;1.73;0.50;;;26.10;64.50;;;;;;5071046;28;20119;-46
2021/05/13 05:04:44;;;;;;;1.42;0.50;;;25.80;66.80;;;;;;5066217;28;20031;-49
2021/05/13 05:07:11;;;;;;;1.17;0.60;;;25.60;66.90;;;;;;5052941;28;20025;-53
2021/05/13 05:09:38;;;;;;;1.13;0.68;;;25.70;65.20;;;;;;5070207;28;20116;-52
2021/05/13 05:12:12;;;;;;;0.93;0.60;;;25.50;67.50;;;;;;5071520;28;20052;-52
2021/05/13 05:14:40;;;;;;;1.52;0.90;;;25.50;66.10;;;;;;5093987;28;20085;-49
2021/05/13 05:17:08;;;;;;;2.85;0.80;;;25.40;67.40;;;;;;5093394;28;20036;-52
2021/05/13 05:19:36;;;;;;;3.60;0.60;;;25.50;67.40;;;;;;5094303;28;20071;-53
2021/05/13 05:22:05;;;;;;;1.83;0.73;;;25.30;64.80;;;;;;5093689;28;20079;-51
2021/05/13 05:24:33;;;;;;;1.52;0.73;;;25.40;67.20;;;;;;5093970;28;20394;-48
2021/05/13 05:27:01;;;;;;;2.25;0.63;;;25.20;66.40;;;;;;5093646;28;20040;-49
2021/05/13 05:29:28;;;;;;;6.00;1.60;;;25.20;63.50;;;;;;5093464;28;20021;-52
2021/05/13 05:31:56;;;;;;;3.60;1.10;;;25.00;66.20;;;;;;5094186;28;20026;-49
2021/05/13 05:34:23;;;;;;;1.88;0.60;;;24.80;66.10;;;;;;5093121;28;20035;-51
2021/05/13 05:36:50;;;;;;;1.98;0.70;;;24.80;67.50;;;;;;5093069;28;20020;-52
2021/05/13 05:39:18;;;;;;;0.68;0.50;;;24.70;69.70;;;;;;5093214;28;20042;-50
2021/05/13 05:41:45;;;;;;;5.90;0.88;;;24.80;69.40;;;;;;5093811;28;20035;-52
2021/05/13 05:44:13;;;;;;;1.38;0.75;;;24.80;69.20;;;;;;5093673;28;20102;-51
2021/05/13 05:46:41;;;;;;;2.00;0.70;;;24.80;67.90;;;;;;5060169;28;20029;-50
2021/05/13 05:49:08;;;;;;;7.35;0.95;;;24.90;67.00;;;;;;5071232;28;20035;-51
2021/05/13 05:51:36;;;;;;;6.53;1.00;;;24.90;68.00;;;;;;5071137;28;20344;-54
2021/05/13 05:54:04;;;;;;;1.63;0.98;;;24.90;66.30;;;;;;5066306;28;20120;-55
2021/05/13 05:56:31;;;;;;;2.63;0.93;;;24.90;63.70;;;;;;5066295;28;20866;-53
2021/05/13 05:59:00;;;;;;;1.17;0.80;;;24.70;68.30;;;;;;5070278;28;20120;-55
2021/05/13 06:01:27;;;;;;;3.30;0.88;;;24.50;69.00;;;;;;5070210;28;20032;-51
2021/05/13 06:03:55;;;;;;;4.50;0.68;;;24.50;69.90;;;;;;5073558;28;20537;-52
2021/05/13 06:06:22;;;;;;;7.80;1.13;;;24.40;69.50;;;;;;5067637;28;20540;-53
2021/05/13 06:08:49;;;;;;;1.55;0.63;;;24.20;69.70;;;;;;5068210;28;20028;-53
2021/05/13 06:11:17;;;;;;;1.30;0.65;;;24.10;71.60;;;;;;5069779;28;20151;-59
2021/05/13 06:13:44;;;;;;;1.25;0.70;;;24.00;72.40;;;;;;5069948;28;20033;-56
2021/05/13 06:16:11;;;;;;;4.20;0.90;;;23.80;72.80;;;;;;5070203;28;20044;-53
2021/05/13 06:18:53;;;;;;;0.93;0.57;;;23.70;68.40;;;;;;5067196;28;20115;-53
2021/05/13 06:21:22;;;;;;;2.92;0.75;;;23.60;69.30;;;;;;5068614;28;20028;-54
2021/05/13 06:23:57;;;;;;;3.38;0.75;;;23.60;73.60;;;;;;5071006;28;20021;-57
2021/05/13 06:26:31;;;;;;;3.33;0.80;;;23.50;74.10;;;;;;5067195;28;20413;-50
2021/05/13 06:28:58;;;;;;;1.30;0.70;;;23.50;74.00;;;;;;5069974;28;20056;-54
2021/05/13 06:31:26;;;;;;;5.35;0.95;;;23.60;69.20;;;;;;5070651;28;20392;-55
2021/05/13 06:33:53;;;;;;;2.22;0.60;;;23.50;69.80;;;;;;5070355;28;20795;-49
2021/05/13 06:36:20;;;;;;;5.97;1.35;;;23.40;73.00;;;;;;5065878;28;20024;-53
2021/05/13 06:38:48;;;;;;;6.15;0.90;;;23.40;72.70;;;;;;5068556;28;20112;-51
2021/05/13 06:41:16;;;;;;;9.02;1.30;;;23.40;71.00;;;;;;5073001;28;20395;-54
2021/05/13 06:43:43;;;;;;;1.90;0.80;;;23.30;71.30;;;;;;5070115;28;20024;-53
2021/05/13 06:46:11;;;;;;;2.47;1.00;;;23.30;73.70;;;;;;5068049;28;20100;-57
2021/05/13 06:48:39;;;;;;;1.67;0.80;;;23.30;73.60;;;;;;5065919;28;20032;-49
2021/05/13 06:51:06;;;;;;;3.58;2.35;;;23.30;73.90;;;;;;5069381;28;20032;-54
2021/05/13 06:53:34;;;;;;;11.80;1.95;;;23.30;71.40;;;;;;5067178;28;20024;-50
2021/05/13 06:56:01;;;;;;;6.47;1.35;;;23.30;73.70;;;;;;5069605;28;20043;-60
2021/05/13 06:58:28;;;;;;;2.17;1.10;;;23.20;72.40;;;;;;5066578;28;20067;-58
2021/05/13 07:00:57;;;;;;;1.48;0.85;;;23.20;72.70;;;;;;5069491;28;20506;-60
2021/05/13 07:03:24;;;;;;;1.00;0.82;;;23.20;73.00;;;;;;5066443;28;20064;-54
2021/05/13 07:05:53;;;;;;;2.53;0.90;;;23.10;74.60;;;;;;5069360;28;20027;-55
2021/05/13 07:08:20;;;;;;;4.00;0.70;;;23.00;75.60;;;;;;5066414;28;20025;-55
2021/05/13 07:10:48;;;;;;;2.03;1.00;;;23.00;75.70;;;;;;5068473;28;20502;-55
2021/05/13 07:13:15;;;;;;;1.88;1.00;;;23.00;75.00;;;;;;5069416;28;20376;-52
2021/05/13 07:15:43;;;;;;;1.25;1.00;;;22.90;76.10;;;;;;5069115;28;20033;-54
2021/05/13 07:18:16;;;;;;;3.72;1.65;;;22.90;75.90;;;;;;5065496;28;20029;-54
2021/05/13 07:20:45;;;;;;;2.90;1.10;;;22.90;75.70;;;;;;5068844;28;20488;-55
2021/05/13 07:23:13;;;;;;;1.27;0.80;;;22.80;76.40;;;;;;5069401;28;20043;-51
2021/05/13 07:25:41;;;;;;;10.02;1.80;;;22.80;76.70;;;;;;5068585;28;20470;-48
2021/05/13 07:28:08;;;;;;;10.10;1.40;;;22.80;76.10;;;;;;5064814;28;20079;-49
2021/05/13 07:30:36;;;;;;;4.85;2.10;;;22.90;74.80;;;;;;5065027;28;20564;-53
2021/05/13 07:33:03;;;;;;;6.25;1.85;;;22.90;75.00;;;;;;5068670;28;20044;-47
2021/05/13 07:35:31;;;;;;;6.13;1.58;;;22.90;75.00;;;;;;5068214;28;20033;-48
2021/05/13 07:37:59;;;;;;;12.80;1.75;;;22.90;71.90;;;;;;5086860;28;20028;-53
2021/05/13 07:40:28;;;;;;;5.18;1.50;;;22.90;73.30;;;;;;5091379;28;20036;-51
2021/05/13 07:42:56;;;;;;;3.58;1.23;;;22.80;72.80;;;;;;5091255;28;20031;-51
2021/05/13 07:45:24;;;;;;;11.43;2.65;;;22.80;74.80;;;;;;5090873;28;20464;-50
2021/05/13 07:47:52;;;;;;;11.10;2.40;;;22.80;75.50;;;;;;5075878;28;20033;-50
2021/05/13 07:50:21;;;;;;;6.60;1.73;;;22.80;67.60;;;;;;5070719;28;20029;-46
2021/05/13 07:52:50;;;;;;;6.63;2.35;;;22.80;73.10;;;;;;5072101;28;20031;-51
2021/05/13 07:55:18;;;;;;;15.38;2.53;;;22.80;67.90;;;;;;5075909;28;20037;-48
2021/05/13 07:57:47;;;;;;;4.70;1.60;;;22.70;69.00;;;;;;5075092;28;20052;-52
2021/05/13 08:00:15;;;;;;;4.97;1.70;;;22.70;71.70;;;;;;5075886;28;20040;-53
2021/05/13 08:02:42;;;;;;;5.65;1.70;;;22.70;68.50;;;;;;5074962;28;20387;-46
2021/05/13 08:05:11;;;;;;;4.40;1.45;;;22.70;69.40;;;;;;5074912;28;20471;-52
2021/05/13 08:07:38;;;;;;;11.90;2.30;;;22.70;68.60;;;;;;5076003;28;20028;-54
2021/05/13 08:10:07;;;;;;;5.00;1.98;;;22.70;69.80;;;;;;5075508;28;20036;-47
2021/05/13 08:12:34;;;;;;;5.32;2.15;;;22.70;72.70;;;;;;5075666;28;20032;-50
2021/05/13 08:15:02;;;;;;;3.47;2.28;;;22.70;73.90;;;;;;5075493;28;20032;-48
2021/05/13 08:17:30;;;;;;;2.47;1.55;;;22.70;73.00;;;;;;5075789;28;20044;-45
2021/05/13 08:19:57;;;;;;;3.20;1.75;;;22.70;76.00;;;;;;5074551;28;20021;-49
2021/05/13 08:22:24;;;;;;;4.35;1.63;;;22.60;75.90;;;;;;5074838;28;20423;-51
2021/05/13 08:24:52;;;;;;;4.32;1.80;;;22.60;77.30;;;;;;5075027;28;20100;-47
2021/05/13 08:27:19;;;;;;;2.65;1.50;;;22.60;72.10;;;;;;5075063;28;20020;-49
2021/05/13 08:29:46;;;;;;;4.18;1.63;;;22.50;75.50;;;;;;5075091;28;20356;-48
2021/05/13 08:32:14;;;;;;;6.13;2.15;;;22.60;77.00;;;;;;5074907;28;20024;-54
2021/05/13 08:34:41;;;;;;;6.38;1.90;;;22.50;73.20;;;;;;5074880;28;20124;-46
2021/05/13 08:37:08;;;;;;;2.95;2.00;;;22.50;76.50;;;;;;5074776;28;20114;-48
2021/05/13 08:39:36;;;;;;;9.18;2.30;;;22.50;75.00;;;;;;5074488;28;20067;-60
2021/05/13 08:42:04;;;;;;;11.90;5.18;;;22.50;73.40;;;;;;5071809;28;20020;-60
2021/05/13 08:44:32;;;;;;;20.00;13.27;;;22.40;70.10;;;;;;5074569;28;20031;-60
2021/05/13 08:47:00;;;;;;;11.55;10.10;;;22.30;74.90;;;;;;5074481;28;20078;-62
2021/05/13 08:49:28;;;;;;;7.70;5.03;;;22.30;74.40;;;;;;5075091;28;20078;-60
2021/05/13 08:51:55;;;;;;;19.95;8.40;;;22.20;71.30;;;;;;5073924;28;20032;-61
2021/05/13 08:54:23;;;;;;;9.23;5.05;;;22.20;71.50;;;;;;5066558;28;20920;-58
2021/05/13 08:56:52;;;;;;;11.27;5.32;;;22.20;75.50;;;;;;5072277;28;20029;-51
2021/05/13 08:59:19;;;;;;;13.52;6.78;;;22.20;72.30;;;;;;5069665;28;20142;-57
2021/05/13 09:02:00;;;;;;;16.00;12.20;;;22.20;71.00;;;;;;5070432;28;20017;-57
2021/05/13 09:04:42;;;;;;;20.77;16.05;;;22.20;74.00;;;;;;5065049;28;20028;-58
2021/05/13 09:07:23;;;;;;;7.55;6.40;;;22.10;75.00;;;;;;5069992;28;21019;-58
2021/05/13 09:10:11;;;;;;;8.43;7.38;;;22.10;75.10;;;;;;5068958;28;20222;-59
2021/05/13 09:12:39;;;;;;;12.63;7.78;;;22.00;74.30;;;;;;5069273;28;20032;-61
2021/05/13 09:15:10;;;;;;;17.17;10.68;;;22.10;75.20;;;;;;5066193;28;20036;-58
2021/05/13 09:17:43;;;;;;;15.43;9.87;;;22.10;72.20;;;;;;5073400;28;20116;-62
2021/05/13 09:20:31;;;;;;;13.05;5.68;;;22.10;74.20;;;;;;5074177;28;20048;-59
2021/05/13 09:23:15;;;;;;;23.10;8.75;;;22.00;75.80;;;;;;5073966;28;20067;-59
2021/05/13 09:26:06;;;;;;;11.90;6.72;;;22.00;70.90;;;;;;5074377;28;20021;-57
2021/05/13 09:28:35;;;;;;;16.60;7.28;;;22.00;76.60;;;;;;5065334;28;20033;-58
2021/05/13 09:31:02;;;;;;;21.73;5.75;;;22.00;74.40;;;;;;5074038;28;20032;-59
2021/05/13 09:33:34;;;;;;;16.92;6.38;;;22.00;74.40;;;;;;5073580;28;20068;-57
2021/05/13 09:36:23;;;;;;;13.35;5.40;;;21.90;64.90;;;;;;5073821;28;20502;-54
2021/05/13 09:38:50;;;;;;;7.65;4.10;;;21.80;69.80;;;;;;5074435;28;20465;-58
2021/05/13 09:41:38;;;;;;;6.72;3.20;;;21.80;66.70;;;;;;5074109;28;20013;-56
2021/05/13 09:44:33;;;;;;;10.70;3.95;;;21.80;67.20;;;;;;5073590;28;20056;-57
2021/05/13 09:47:19;;;;;;;7.10;3.05;;;21.70;65.50;;;;;;5073996;28;20537;-56
2021/05/13 09:49:58;;;;;;;10.60;3.70;;;21.70;67.20;;;;;;5073672;28;20028;-58
2021/05/13 09:52:47;;;;;;;12.95;3.22;;;21.60;66.40;;;;;;5073787;28;20021;-59
2021/05/13 09:55:21;;;;;;;14.98;4.25;;;21.60;63.60;;;;;;5073972;28;20036;-57
2021/05/13 09:57:58;;;;;;;11.20;2.80;;;21.60;62.60;;;;;;5073680;28;20528;-57
2021/05/13 10:00:47;;;;;;;7.70;2.80;;;21.50;62.40;;;;;;5073617;28;20557;-58
2021/05/13 10:03:24;;;;;;;6.05;3.08;;;21.50;65.90;;;;;;5072029;28;20025;-61
2021/05/13 10:05:54;;;;;;;9.68;3.00;;;21.40;66.90;;;;;;5073319;28;20091;-59
2021/05/13 10:08:22;;;;;;;7.72;2.70;;;21.40;65.10;;;;;;5073477;28;20114;-61
2021/05/13 10:10:51;;;;;;;7.80;3.08;;;21.40;67.30;;;;;;5062573;28;20055;-62
2021/05/13 10:13:20;;;;;;;9.07;2.90;;;21.40;64.00;;;;;;5067966;28;20491;-54
2021/05/13 10:15:48;;;;;;;10.02;2.90;;;21.40;65.70;;;;;;5068782;28;20033;-55
2021/05/13 10:18:22;;;;;;;5.63;2.50;;;21.40;64.90;;;;;;5069504;28;20101;-55
2021/05/13 10:20:58;;;;;;;5.40;2.63;;;21.30;63.90;;;;;;5067931;28;20032;-54
2021/05/13 10:23:26;;;;;;;5.85;2.72;;;21.30;65.60;;;;;;5066560;28;20033;-51
2021/05/13 10:25:53;;;;;;;9.00;2.75;;;21.20;66.30;;;;;;5070632;28;20021;-55
2021/05/13 10:28:28;;;;;;;3.70;2.70;;;21.20;66.80;;;;;;5069477;28;20013;-58
2021/05/13 10:31:02;;;;;;;12.68;3.30;;;21.20;65.30;;;;;;5070915;28;20032;-55
2021/05/13 10:33:48;;;;;;;8.20;2.95;;;21.20;66.70;;;;;;5070738;28;20067;-57
2021/05/13 10:36:20;;;;;;;5.97;3.08;;;21.10;66.90;;;;;;5070446;28;20178;-53
2021/05/13 10:38:52;;;;;;;5.05;2.60;;;21.10;66.90;;;;;;5067512;28;21328;-61
2021/05/13 10:41:34;;;;;;;10.73;7.63;;;21.10;66.10;;;;;;5068926;28;20036;-56
2021/05/13 10:44:11;;;;;;;14.50;11.23;;;21.10;63.70;;;;;;5066287;28;20035;-52
2021/05/13 10:46:51;;;;;;;15.32;12.30;;;21.10;65.10;;;;;;5068536;28;20035;-55
2021/05/13 10:49:24;;;;;;;17.13;8.77;;;21.10;62.60;;;;;;5066385;28;20024;-53
2021/05/13 10:51:58;;;;;;;7.82;4.35;;;21.00;62.30;;;;;;5068676;28;20038;-53
2021/05/13 10:54:31;;;;;;;6.82;3.33;;;21.10;63.10;;;;;;5069920;28;20044;-55
2021/05/13 10:57:17;;;;;;;6.10;3.63;;;21.00;63.60;;;;;;5069662;28;20082;-53
2021/05/13 11:00:08;;;;;;;9.23;4.45;;;21.00;65.70;;;;;;5066070;28;20063;-53
2021/05/13 11:02:46;;;;;;;9.52;7.38;;;21.00;66.70;;;;;;5059379;28;20090;-51
2021/05/13 11:05:30;;;;;;;32.25;9.82;;;21.00;65.60;;;;;;5068333;28;20028;-55
2021/05/13 11:08:20;;;;;;;11.15;7.20;;;20.90;66.40;;;;;;5066439;28;20393;-51
2021/05/13 11:10:56;;;;;;;7.18;6.10;;;21.00;67.20;;;;;;5059765;28;20056;-48
2021/05/13 11:13:37;;;;;;;14.85;9.40;;;20.90;67.30;;;;;;5068712;28;20493;-49
2021/05/13 11:16:05;;;;;;;12.82;8.38;;;21.00;67.70;;;;;;5069457;28;20558;-51
2021/05/13 11:18:33;;;;;;;10.05;9.05;;;20.90;67.10;;;;;;5066474;28;20515;-51
2021/05/13 11:21:01;;;;;;;14.30;10.40;;;20.90;68.00;;;;;;5068682;28;20046;-47
2021/05/13 11:23:32;;;;;;;14.10;10.23;;;20.90;67.90;;;;;;5068414;28;20062;-58
2021/05/13 11:26:10;;;;;;;13.10;9.13;;;20.90;68.50;;;;;;5069039;28;20028;-55
2021/05/13 11:28:45;;;;;;;13.80;9.23;;;20.90;69.50;;;;;;5063885;28;20032;-53
2021/05/13 11:31:18;;;;;;;13.77;11.70;;;20.80;70.30;;;;;;5069376;28;20099;-55
2021/05/13 11:33:59;;;;;;;21.38;12.85;;;20.80;71.70;;;;;;5066713;28;20039;-51
2021/05/13 11:36:40;;;;;;;16.25;10.10;;;20.90;70.90;;;;;;5067162;28;20039;-46
2021/05/13 11:39:12;;;;;;;19.15;12.32;;;20.80;70.90;;;;;;5065416;28;20085;-48
2021/05/13 11:41:41;;;;;;;19.48;12.23;;;20.80;71.20;;;;;;5068310;28;20043;-47
2021/05/13 11:44:09;;;;;;;11.85;10.43;;;20.80;72.00;;;;;;5069000;28;20025;-58
2021/05/13 11:46:37;;;;;;;15.57;10.20;;;20.80;72.30;;;;;;5069079;28;20027;-44
2021/05/13 11:49:06;;;;;;;10.50;9.40;;;20.80;72.50;;;;;;5065551;28;20068;-48
2021/05/13 11:51:36;;;;;;;12.73;9.65;;;20.80;71.80;;;;;;5066966;28;20378;-52
2021/05/13 11:54:08;;;;;;;12.40;8.63;;;20.80;72.40;;;;;;5068719;28;20040;-52
2021/05/13 11:56:40;;;;;;;11.57;8.93;;;20.80;70.80;;;;;;5069025;28;20036;-54
2021/05/13 11:59:12;;;;;;;15.05;7.85;;;20.70;72.20;;;;;;5065981;28;20019;-57
2021/05/13 12:01:40;;;;;;;10.73;8.63;;;20.80;73.20;;;;;;5068573;28;20522;-51
2021/05/13 12:04:10;;;;;;;10.07;8.27;;;20.70;71.90;;;;;;5069157;28;20024;-53
2021/05/13 12:06:59;;;;;;;9.50;8.60;;;20.70;72.40;;;;;;5072425;28;20032;-53
2021/05/13 12:09:34;;;;;;;9.90;8.88;;;20.70;72.80;;;;;;5064072;28;20024;-53
2021/05/13 12:12:03;;;;;;;8.52;7.72;;;20.70;73.40;;;;;;5068447;28;20097;-57
2021/05/13 12:14:32;;;;;;;9.75;8.20;;;20.70;72.90;;;;;;5068985;28;20047;-51
2021/05/13 12:17:01;;;;;;;10.18;7.53;;;20.60;73.30;;;;;;5068568;28;20100;-57
2021/05/13 12:19:32;;;;;;;9.15;8.20;;;20.70;73.60;;;;;;5064793;28;20024;-51
2021/05/13 12:22:11;;;;;;;9.02;7.45;;;20.60;73.30;;;;;;5068307;28;20035;-55
2021/05/13 12:24:45;;;;;;;8.80;7.72;;;20.60;73.10;;;;;;5068639;28;20113;-53
2021/05/13 12:27:17;;;;;;;8.23;7.38;;;20.50;73.50;;;;;;5069355;28;20095;-54
2021/05/13 12:29:52;;;;;;;;;;;20.50;74.00;;;;;;5065733;28;20055;-53
2021/05/13 12:32:37;;;;;;;8.90;7.15;;;20.50;74.20;;;;;;5065548;28;20301;-52
2021/05/13 12:35:26;;;;;;;7.65;6.68;;;20.50;74.30;;;;;;5067066;28;20043;-49
2021/05/13 12:37:54;;;;;;;9.35;6.32;;;20.40;74.20;;;;;;5065788;28;20359;-53
2021/05/13 12:40:27;;;;;;;9.38;6.35;;;20.40;74.30;;;;;;5068683;28;20050;-52
2021/05/13 12:43:15;;;;;;;7.45;6.25;;;20.40;74.90;;;;;;5069581;28;20028;-49
2021/05/13 12:45:43;;;;;;;10.20;6.28;;;20.40;75.10;;;;;;5072505;28;20035;-54
2021/05/13 12:48:11;;;;;;;6.38;5.70;;;20.40;75.10;;;;;;5070587;28;20394;-56
2021/05/13 12:50:39;;;;;;;6.38;5.75;;;20.40;75.20;;;;;;5069467;28;20020;-59
2021/05/13 12:53:14;;;;;;;9.68;6.07;;;20.40;75.40;;;;;;5072334;28;20099;-54
2021/05/13 12:55:44;;;;;;;6.40;4.93;;;20.30;75.40;;;;;;5072070;28;20013;-57
2021/05/13 12:58:13;;;;;;;7.68;5.57;;;20.30;74.00;;;;;;5072130;28;20025;-57
2021/05/13 13:00:42;;;;;;;6.65;5.57;;;20.30;75.40;;;;;;5069883;28;20483;-57
2021/05/13 13:03:17;;;;;;;6.68;5.50;;;20.30;76.00;;;;;;5070098;28;20070;-52
2021/05/13 13:05:45;;;;;;;6.13;5.18;;;20.30;75.90;;;;;;5075865;28;20097;-54
2021/05/13 13:08:13;;;;;;;5.95;4.97;;;20.20;75.80;;;;;;5071869;28;20374;-54
2021/05/13 13:10:46;;;;;;;5.90;5.25;;;20.30;75.90;;;;;;5071115;28;20074;-54